Time;durP1;ratioP1;P1;durP2;ratioP2;P2;SDS_P1;SDS_P2;PMS_P1;PMS_P2;Temp;Humidity;BMP_temperature;BMP_pressure;BME280_temperature;BME280_humidity;BME280_pressure;Samples;Min_cycle;Max_cycle;Signal;HPM_P1;HPM_P2
2023/05/31 04:22:31;;;;;;;2.13;1.10;;;;;;;13.43;60.65;100633.25;5112977;27;20729;-67
2023/05/31 04:24:57;;;;;;;3.38;1.30;;;;;;;13.50;59.52;100639.53;5091558;28;20124;-67
2023/05/31 04:27:32;;;;;;;1.63;1.00;;;;;;;13.61;58.66;100646.25;5087813;28;20070;-67
2023/05/31 04:29:58;;;;;;;2.42;1.00;;;;;;;13.63;59.05;100643.38;5078792;28;20036;-67
2023/05/31 04:32:27;;;;;;;2.28;1.10;;;;;;;13.68;59.33;100641.81;5067778;28;20503;-67
2023/05/31 04:34:57;;;;;;;1.88;1.15;;;;;;;13.68;59.16;100641.81;5067773;28;20041;-67
2023/05/31 04:37:29;;;;;;;2.67;1.35;;;;;;;13.78;58.82;100646.94;5067637;28;20063;-68
2023/05/31 04:39:56;;;;;;;4.97;1.40;;;;;;;13.86;59.02;100649.50;5067390;28;20489;-68
2023/05/31 04:42:24;;;;;;;3.92;1.55;;;;;;;13.92;58.53;100653.28;5067560;28;20044;-67
2023/05/31 04:44:51;;;;;;;;;;;;;;;13.96;58.63;100643.88;5068054;28;20040;-66
2023/05/31 04:47:16;;;;;;;2.15;1.10;;;;;;;14.02;58.71;100632.44;5067646;28;19967;-68
2023/05/31 04:49:42;;;;;;;1.45;0.95;;;;;;;14.07;58.12;100641.53;5067185;28;20060;-67
2023/05/31 04:52:09;;;;;;;3.60;1.70;;;;;;;14.14;57.79;100646.97;5067563;28;20048;-60
2023/05/31 04:54:35;;;;;;;3.55;2.30;;;;;;;14.25;57.82;100640.31;5067421;28;20382;-61
2023/05/31 04:57:01;;;;;;;1.77;1.42;;;;;;;14.30;57.52;100646.78;5067449;28;20090;-61
2023/05/31 04:59:27;;;;;;;3.45;1.60;;;;;;;14.28;57.42;100645.31;5067259;28;20493;-60
2023/05/31 05:01:53;;;;;;;3.15;1.10;;;;;;;14.44;57.11;100642.41;5068484;28;20045;-61
2023/05/31 05:04:18;;;;;;;1.92;1.13;;;;;;;14.53;57.03;100648.50;5067292;28;20033;-60
2023/05/31 05:06:44;;;;;;;2.47;1.40;;;;;;;14.47;57.52;100644.72;5067216;28;20128;-61
2023/05/31 05:09:10;;;;;;;2.42;1.30;;;;;;;14.60;56.81;100646.72;5066756;28;20033;-60
2023/05/31 05:11:36;;;;;;;2.92;1.17;;;;;;;14.60;56.68;100641.38;5067174;28;20417;-59
2023/05/31 05:14:01;;;;;;;1.40;1.17;;;;;;;14.68;56.70;100648.50;5066926;28;20029;-60
2023/05/31 05:16:28;;;;;;;1.23;1.08;;;;;;;14.72;56.38;100645.22;5067142;28;20037;-61
2023/05/31 05:18:53;;;;;;;1.42;1.05;;;;;;;14.70;56.06;100649.94;5068018;28;20112;-61
2023/05/31 05:21:19;;;;;;;2.22;1.13;;;;;;;14.65;56.67;100645.16;5066741;28;20074;-58
2023/05/31 05:23:46;;;;;;;1.35;1.05;;;;;;;14.74;56.37;100653.09;5066693;28;20041;-59
2023/05/31 05:26:12;;;;;;;3.45;1.25;;;;;;;14.79;56.46;100656.84;5066655;28;20505;-61
2023/05/31 05:28:38;;;;;;;1.60;1.13;;;;;;;14.86;56.54;100657.72;5066611;28;20043;-61
2023/05/31 05:31:04;;;;;;;3.15;1.10;;;;;;;14.79;55.42;100654.16;5066756;28;20044;-59
2023/05/31 05:33:35;;;;;;;1.42;1.00;;;;;;;14.86;55.83;100659.59;5055058;28;20044;-60
2023/05/31 05:36:02;;;;;;;;;;;;;;;14.97;55.81;100650.22;5053842;28;20119;-59
2023/05/31 05:38:29;;;;;;;3.00;1.10;;;;;;;15.07;55.50;100650.72;5053190;28;19923;-59
2023/05/31 05:40:55;;;;;;;2.83;1.15;;;;;;;15.07;56.00;100653.41;5053273;28;20037;-57
2023/05/31 05:43:22;;;;;;;2.03;1.30;;;;;;;15.09;56.03;100646.81;5053462;28;20397;-60
2023/05/31 05:46:16;;;;;;;2.80;1.10;;;;;;;15.28;55.92;100664.13;5047960;28;20063;-60
2023/05/31 05:48:42;;;;;;;1.05;0.95;;;;;;;15.33;54.76;100663.53;5053011;28;20041;-59
2023/05/31 05:51:09;;;;;;;1.45;0.90;;;;;;;15.45;54.33;100668.19;5053111;28;20028;-58
2023/05/31 05:53:35;;;;;;;2.10;1.30;;;;;;;15.45;54.68;100665.50;5053064;28;20028;-59
2023/05/31 05:56:01;;;;;;;2.93;1.23;;;;;;;15.57;53.69;100670.31;5054303;28;20061;-62
2023/05/31 05:58:34;;;;;;;1.30;1.05;;;;;;;15.64;52.96;100663.16;5052826;28;20278;-61
2023/05/31 06:01:02;;;;;;;3.08;1.00;;;;;;;15.60;53.29;100660.03;5054425;28;20496;-61
2023/05/31 06:03:30;;;;;;;2.97;1.13;;;;;;;15.70;53.12;100649.78;5053177;28;20056;-61
2023/05/31 06:05:58;;;;;;;2.17;0.93;;;;;;;15.79;52.36;100653.16;5036676;28;20045;-60
2023/05/31 06:08:23;;;;;;;2.15;1.10;;;;;;;15.87;52.62;100657.53;5052686;28;20095;-61
2023/05/31 06:10:48;;;;;;;1.52;1.00;;;;;;;15.97;51.93;100658.84;5052653;28;20516;-61
2023/05/31 06:13:15;;;;;;;1.52;0.90;;;;;;;15.95;51.75;100650.16;5052771;28;20064;-59
2023/05/31 06:15:41;;;;;;;3.10;1.13;;;;;;;15.93;52.19;100654.06;5052645;28;20025;-60
2023/05/31 06:18:06;;;;;;;1.85;1.13;;;;;;;16.02;52.10;100659.06;5052497;28;20029;-61
2023/05/31 06:20:32;;;;;;;2.10;1.02;;;;;;;16.05;51.72;100647.09;5052344;28;20086;-61
2023/05/31 06:22:59;;;;;;;2.40;1.13;;;;;;;16.10;51.96;100651.88;5052575;28;20037;-61
2023/05/31 06:25:24;;;;;;;0.77;0.75;;;;;;;16.21;51.79;100648.63;5052648;28;20097;-60
2023/05/31 06:27:50;;;;;;;1.25;1.15;;;;;;;16.21;50.48;100646.75;5052479;28;20028;-61
2023/05/31 06:30:16;;;;;;;1.77;1.13;;;;;;;16.29;50.82;100651.13;5052348;28;20029;-61
2023/05/31 06:32:44;;;;;;;4.88;1.27;;;;;;;16.31;50.78;100642.88;5052431;28;20033;-60
2023/05/31 06:35:14;;;;;;;2.15;1.17;;;;;;;16.30;50.29;100642.06;5052267;28;20044;-62
2023/05/31 06:37:39;;;;;;;2.35;1.13;;;;;;;16.39;50.00;100648.06;5052368;28;20501;-59
2023/05/31 06:40:07;;;;;;;1.77;0.90;;;;;;;16.41;50.47;100649.53;5052193;28;20379;-60
2023/05/31 06:42:32;;;;;;;;;;;;;;;16.41;50.34;100652.22;5052705;28;20049;-60
2023/05/31 06:44:58;;;;;;;2.63;1.20;;;;;;;16.51;50.51;100651.84;5052491;28;19923;-59
2023/05/31 06:47:46;;;;;;;2.72;0.90;;;;;;;16.55;50.73;100656.59;5033970;28;20411;-62
2023/05/31 06:50:18;;;;;;;1.23;1.10;;;;;;;16.52;50.24;100651.63;5053187;28;20401;-59
2023/05/31 06:53:03;;;;;;;1.73;1.30;;;;;;;16.69;50.82;100656.63;5053267;28;20099;-60
2023/05/31 06:55:46;;;;;;;2.22;1.05;;;;;;;16.74;49.54;100651.50;5053562;28;20110;-60
2023/05/31 06:58:17;;;;;;;3.38;1.58;;;;;;;16.84;50.18;100651.94;5052169;28;20025;-60
2023/05/31 07:00:44;;;;;;;2.55;1.00;;;;;;;16.98;49.61;100653.63;5051873;28;20025;-60
2023/05/31 07:03:10;;;;;;;2.25;1.17;;;;;;;16.91;48.85;100643.91;5051901;28;20032;-60
2023/05/31 07:05:36;;;;;;;3.63;1.10;;;;;;;17.02;49.63;100643.28;5051712;28;20094;-59
2023/05/31 07:08:02;;;;;;;2.72;1.30;;;;;;;17.04;49.31;100644.72;5051801;28;20507;-59
2023/05/31 07:10:31;;;;;;;1.65;1.20;;;;;;;17.11;49.03;100646.59;5051501;28;20072;-60
2023/05/31 07:12:57;;;;;;;1.45;1.00;;;;;;;17.34;48.36;100647.84;5052963;28;20505;-60
2023/05/31 07:15:22;;;;;;;1.73;1.08;;;;;;;17.37;49.07;100638.53;5050958;28;20041;-60
2023/05/31 07:17:48;;;;;;;2.17;1.80;;;;;;;17.47;48.60;100646.16;5051632;28;20616;-61
2023/05/31 07:20:14;;;;;;;1.17;0.90;;;;;;;17.52;48.63;100641.00;5051293;28;20048;-61
2023/05/31 07:22:40;;;;;;;4.22;1.00;;;;;;;17.72;47.62;100641.81;5053158;28;20040;-62
2023/05/31 07:25:06;;;;;;;2.13;1.20;;;;;;;17.75;47.60;100640.59;5052611;28;20125;-60
2023/05/31 07:27:31;;;;;;;1.88;1.23;;;;;;;17.79;48.65;100639.09;5052600;28;20076;-60
2023/05/31 07:29:57;;;;;;;1.42;1.10;;;;;;;17.79;47.65;100631.84;5052692;28;20121;-59
2023/05/31 07:32:22;;;;;;;3.45;1.13;;;;;;;17.90;47.60;100624.97;5052463;28;20393;-61
2023/05/31 07:34:48;;;;;;;2.20;1.15;;;;;;;18.02;48.02;100628.69;5052570;28;20041;-61
2023/05/31 07:37:13;;;;;;;2.40;1.38;;;;;;;18.14;47.65;100620.75;5052442;28;20041;-60
2023/05/31 07:39:39;;;;;;;2.97;1.48;;;;;;;18.35;45.75;100622.31;5052339;28;20047;-61
2023/05/31 07:42:05;;;;;;;1.42;0.90;;;;;;;18.40;46.95;100615.25;5052388;28;20032;-58
2023/05/31 07:44:30;;;;;;;3.63;1.17;;;;;;;18.38;47.29;100616.50;5052439;28;20073;-60
2023/05/31 07:46:56;;;;;;;1.95;1.08;;;;;;;18.44;47.31;100621.03;5052220;28;20108;-60
2023/05/31 07:49:22;;;;;;;2.75;1.65;;;;;;;18.52;47.32;100612.69;5052183;28;20043;-61
2023/05/31 07:51:47;;;;;;;3.10;1.20;;;;;;;18.70;45.98;100615.50;5052398;28;20033;-60
2023/05/31 07:54:13;;;;;;;1.88;1.23;;;;;;;18.94;46.03;100615.75;5052287;28;20072;-60
2023/05/31 07:56:39;;;;;;;2.42;1.15;;;;;;;19.03;45.36;100603.63;5051969;28;20052;-60
2023/05/31 07:59:05;;;;;;;2.03;1.40;;;;;;;19.16;44.71;100608.94;5052391;28;20071;-60
2023/05/31 08:01:30;;;;;;;2.80;1.23;;;;;;;19.09;44.37;100612.72;5052106;28;20502;-60
2023/05/31 08:04:06;;;;;;;2.50;1.20;;;;;;;19.27;45.40;100601.16;5051962;28;20063;-61
2023/05/31 08:06:32;;;;;;;1.70;1.20;;;;;;;19.31;44.81;100600.50;5051988;28;20069;-61
2023/05/31 08:08:58;;;;;;;2.42;1.30;;;;;;;19.52;44.26;100601.97;5051962;28;20029;-61
2023/05/31 08:11:25;;;;;;;3.40;1.35;;;;;;;19.67;43.77;100594.34;5051860;28;20405;-60
2023/05/31 08:13:51;;;;;;;2.67;1.30;;;;;;;19.57;43.36;100590.50;5052010;28;20036;-60
2023/05/31 08:16:17;;;;;;;2.47;1.10;;;;;;;19.75;43.93;100585.94;5051911;28;20045;-61
2023/05/31 08:18:43;;;;;;;1.15;0.80;;;;;;;19.95;43.66;100580.31;5051613;28;20036;-59
2023/05/31 08:21:08;;;;;;;2.45;1.05;;;;;;;20.13;42.42;100586.75;5051822;28;20116;-60
2023/05/31 08:23:34;;;;;;;2.13;1.40;;;;;;;20.29;41.64;100581.53;5051742;28;20501;-62
2023/05/31 08:25:59;;;;;;;3.83;1.40;;;;;;;20.31;41.98;100579.41;5051878;28;20037;-64
2023/05/31 08:28:25;;;;;;;3.95;1.75;;;;;;;20.50;42.40;100584.81;5051576;28;20183;-63
2023/05/31 08:30:50;;;;;;;2.95;1.25;;;;;;;20.62;43.26;100579.44;5051610;28;20127;-63
2023/05/31 08:33:16;;;;;;;2.92;1.15;;;;;;;20.91;42.07;100589.38;5051700;28;20052;-62
2023/05/31 08:35:41;;;;;;;1.73;1.20;;;;;;;20.77;40.59;100588.78;5051583;28;20041;-63
2023/05/31 08:38:07;;;;;;;2.53;1.30;;;;;;;21.14;40.94;100585.91;5051611;28;20119;-63
2023/05/31 08:40:32;;;;;;;2.42;1.20;;;;;;;21.19;40.37;100582.47;5051196;28;20037;-63
2023/05/31 08:43:07;;;;;;;3.45;1.30;;;;;;;20.97;41.02;100579.50;5050365;28;20119;-64
2023/05/31 08:45:34;;;;;;;1.40;1.20;;;;;;;21.25;40.86;100573.41;5051615;28;20048;-65
2023/05/31 08:48:22;;;;;;;1.95;1.38;;;;;;;21.17;40.48;100573.75;5051574;28;20162;-64
2023/05/31 08:50:49;;;;;;;5.65;1.50;;;;;;;21.35;40.46;100568.25;5010465;28;20045;-63
2023/05/31 08:53:16;;;;;;;2.22;1.30;;;;;;;21.59;39.92;100572.59;5051576;28;20033;-63
2023/05/31 08:55:44;;;;;;;2.03;1.33;;;;;;;21.59;39.64;100569.06;5051620;28;20056;-64
2023/05/31 08:58:10;;;;;;;1.42;1.10;;;;;;;21.64;39.50;100571.88;5051406;28;20039;-64
2023/05/31 09:00:36;;;;;;;1.90;1.15;;;;;;;21.93;38.98;100562.75;5051192;28;20029;-64
2023/05/31 09:03:05;;;;;;;2.15;1.27;;;;;;;22.01;39.77;100558.81;5051226;28;20036;-64
2023/05/31 09:05:31;;;;;;;1.42;0.90;;;;;;;22.05;39.68;100557.28;5051486;28;20044;-64
2023/05/31 09:07:58;;;;;;;1.92;1.15;;;;;;;22.35;39.47;100557.06;5052829;28;20044;-64
2023/05/31 09:10:23;;;;;;;2.42;1.45;;;;;;;22.54;38.79;100559.56;5054898;28;20615;-64
2023/05/31 09:12:49;;;;;;;2.53;1.30;;;;;;;22.88;37.75;100558.53;5055136;28;20044;-63
2023/05/31 09:15:15;;;;;;;3.08;1.30;;;;;;;22.53;38.49;100557.91;5055031;28;20426;-63
2023/05/31 09:17:45;;;;;;;2.47;1.40;;;;;;;22.79;38.14;100559.19;5055090;28;20041;-64
2023/05/31 09:20:11;;;;;;;2.88;1.52;;;;;;;23.01;37.38;100555.50;5054564;28;20529;-63
2023/05/31 09:22:37;;;;;;;2.60;1.45;;;;;;;23.06;37.74;100554.75;5055043;28;20070;-64
2023/05/31 09:25:03;;;;;;;2.00;1.40;;;;;;;23.45;36.26;100552.06;5054848;28;20453;-63
2023/05/31 09:27:39;;;;;;;3.42;1.48;;;;;;;23.63;36.14;100551.00;5054866;28;20045;-65
2023/05/31 09:30:09;;;;;;;3.20;1.40;;;;;;;23.89;35.54;100552.13;5054361;28;20041;-64
2023/05/31 09:32:35;;;;;;;2.28;1.45;;;;;;;23.71;35.64;100548.63;5054694;28;20044;-64
2023/05/31 09:35:12;;;;;;;3.00;1.20;;;;;;;23.95;36.07;100548.41;5054718;28;20041;-63
2023/05/31 09:37:44;;;;;;;2.17;1.30;;;;;;;23.89;35.97;100547.50;5054598;28;20029;-62
2023/05/31 09:40:13;;;;;;;3.58;1.55;;;;;;;24.13;35.14;100544.53;5054313;28;20049;-64
2023/05/31 09:42:38;;;;;;;2.83;1.40;;;;;;;24.50;34.55;100550.09;5054613;28;20037;-63
2023/05/31 09:45:05;;;;;;;4.18;1.10;;;;;;;24.50;35.14;100541.91;5054554;28;20087;-63
2023/05/31 09:47:31;;;;;;;1.98;1.38;;;;;;;24.73;33.74;100544.31;5054294;28;20129;-63
2023/05/31 09:49:56;;;;;;;3.17;1.10;;;;;;;25.00;33.93;100536.06;5054166;28;20089;-64
2023/05/31 09:52:32;;;;;;;3.17;1.33;;;;;;;25.25;34.43;100545.53;5052996;28;20037;-64
2023/05/31 09:55:05;;;;;;;3.50;1.30;;;;;;;25.40;33.84;100543.72;5054395;28;20037;-63
2023/05/31 09:57:40;;;;;;;1.35;1.05;;;;;;;25.32;33.75;100529.78;5054351;28;20120;-63
2023/05/31 10:00:16;;;;;;;1.85;1.27;;;;;;;25.13;33.27;100532.09;5053991;28;20040;-64
2023/05/31 10:02:54;;;;;;;2.22;1.08;;;;;;;25.14;33.38;100534.56;5054297;28;20132;-64
2023/05/31 10:05:20;;;;;;;3.90;1.23;;;;;;;25.47;33.75;100538.03;5054140;28;20037;-64
2023/05/31 10:07:52;;;;;;;2.65;1.40;;;;;;;25.44;32.39;100533.94;5054154;28;20033;-64
2023/05/31 10:10:20;;;;;;;2.72;1.10;;;;;;;25.34;32.44;100530.31;5053747;28;20028;-65
2023/05/31 10:12:57;;;;;;;2.97;1.60;;;;;;;26.02;33.13;100525.75;5053944;28;20094;-64
2023/05/31 10:15:27;;;;;;;2.50;1.20;;;;;;;26.52;32.33;100529.66;5052748;28;20128;-64
2023/05/31 10:17:58;;;;;;;2.38;1.38;;;;;;;26.81;30.35;100524.50;5053800;28;20044;-64
2023/05/31 10:20:28;;;;;;;2.90;1.42;;;;;;;26.27;29.05;100515.94;5053522;28;20094;-65
2023/05/31 10:22:57;;;;;;;3.63;1.42;;;;;;;26.86;28.98;100524.47;5053711;28;20036;-64
2023/05/31 10:25:29;;;;;;;2.00;1.20;;;;;;;27.06;27.97;100523.69;5053746;28;20124;-64
2023/05/31 10:27:57;;;;;;;3.42;1.23;;;;;;;27.53;27.57;100530.66;5053743;28;20056;-64
2023/05/31 10:30:27;;;;;;;1.73;1.13;;;;;;;27.56;27.76;100524.63;5053330;28;20045;-64
2023/05/31 10:32:57;;;;;;;2.17;1.42;;;;;;;27.03;27.68;100524.19;5053853;28;20418;-64
2023/05/31 10:35:25;;;;;;;2.20;1.40;;;;;;;27.65;27.46;100524.84;5053640;28;20037;-63
2023/05/31 10:37:53;;;;;;;1.48;1.00;;;;;;;27.46;27.59;100513.72;5053382;28;20044;-64
2023/05/31 10:40:33;;;;;;;1.60;0.93;;;;;;;27.92;28.19;100516.31;5053189;28;20032;-64
2023/05/31 10:43:24;;;;;;;4.03;1.50;;;;;;;27.94;27.69;100516.81;5053389;28;20124;-64
2023/05/31 10:46:00;;;;;;;3.38;1.75;;;;;;;28.13;26.16;100515.88;5053286;28;20032;-64
2023/05/31 10:48:39;;;;;;;2.30;1.17;;;;;;;28.45;25.88;100514.59;5052994;28;20435;-65
2023/05/31 10:51:04;;;;;;;2.30;1.35;;;;;;;28.26;25.66;100503.47;5051860;28;20033;-64
2023/05/31 10:53:35;;;;;;;1.73;1.30;;;;;;;27.98;26.66;100516.00;5053245;28;20123;-65
2023/05/31 10:56:03;;;;;;;2.60;1.40;;;;;;;28.40;26.42;100490.00;5053286;28;20044;-65
2023/05/31 10:58:30;;;;;;;1.50;1.10;;;;;;;28.95;25.62;100501.56;5052794;28;20489;-63
2023/05/31 11:00:57;;;;;;;2.13;1.27;;;;;;;27.84;26.11;100504.84;5053091;28;20041;-65
2023/05/31 11:03:29;;;;;;;1.83;1.33;;;;;;;28.64;25.30;100499.13;5053054;28;20040;-65
2023/05/31 11:06:08;;;;;;;2.05;1.23;;;;;;;28.87;25.72;100483.81;5052887;28;20553;-64
2023/05/31 11:08:34;;;;;;;3.45;1.27;;;;;;;29.29;25.08;100503.44;5052669;28;20044;-64
2023/05/31 11:11:25;;;;;;;1.90;1.13;;;;;;;28.73;24.57;100496.56;5052915;28;20071;-64
2023/05/31 11:14:06;;;;;;;1.58;1.05;;;;;;;28.83;24.89;100498.41;5052852;28;20033;-65
2023/05/31 11:16:35;;;;;;;1.40;1.00;;;;;;;28.84;25.01;100498.09;5052726;28;20028;-65
2023/05/31 11:19:05;;;;;;;2.42;1.25;;;;;;;29.26;24.84;100493.03;5051144;28;20102;-64
2023/05/31 11:21:49;;;;;;;2.03;1.23;;;;;;;29.17;25.22;100487.38;5052622;28;20163;-65
2023/05/31 11:24:28;;;;;;;1.63;1.15;;;;;;;29.42;24.77;100489.84;5052614;28;20033;-64
2023/05/31 11:26:55;;;;;;;2.95;1.27;;;;;;;28.95;24.64;100484.31;5052694;28;20563;-64
2023/05/31 11:29:20;;;;;;;1.42;1.10;;;;;;;29.38;24.64;100479.72;5052311;28;20119;-64
2023/05/31 11:31:55;;;;;;;1.95;1.27;;;;;;;29.65;25.07;100479.16;5052109;28;20132;-64
2023/05/31 11:34:26;;;;;;;2.83;1.15;;;;;;;30.05;24.52;100483.25;5052441;28;20052;-63
2023/05/31 11:36:51;;;;;;;2.85;1.13;;;;;;;29.03;24.32;100483.69;5052518;28;20438;-64
2023/05/31 11:39:18;;;;;;;3.40;1.20;;;;;;;29.53;24.32;100470.50;5052100;28;20061;-64
2023/05/31 11:41:44;;;;;;;2.95;1.00;;;;;;;28.70;25.56;100467.00;5052475;28;20068;-64
2023/05/31 11:44:16;;;;;;;3.03;1.27;;;;;;;28.27;25.66;100466.78;5052544;28;20117;-64
2023/05/31 11:46:45;;;;;;;1.75;1.10;;;;;;;29.45;25.45;100475.53;5052427;28;20086;-64
2023/05/31 11:49:12;;;;;;;4.93;1.35;;;;;;;29.54;25.58;100477.63;5051894;28;20362;-64
2023/05/31 11:51:42;;;;;;;2.22;1.23;;;;;;;30.13;24.95;100466.16;5052238;28;20549;-64
2023/05/31 11:54:08;;;;;;;4.20;1.55;;;;;;;30.99;24.01;100469.38;5052200;28;20512;-64
2023/05/31 11:56:35;;;;;;;1.92;1.20;;;;;;;30.64;23.96;100468.03;5052365;28;20064;-64
2023/05/31 11:59:02;;;;;;;3.40;1.20;;;;;;;30.26;24.90;100465.38;5051641;28;20036;-64
2023/05/31 12:01:28;;;;;;;2.40;1.33;;;;;;;30.92;23.98;100460.69;5052199;28;20389;-64
2023/05/31 12:04:00;;;;;;;1.75;1.30;;;;;;;31.50;22.86;100460.13;5052104;28;20047;-64
2023/05/31 12:06:26;;;;;;;2.45;1.15;;;;;;;31.76;22.37;100463.13;5052075;28;20043;-64
2023/05/31 12:08:52;;;;;;;3.33;1.20;;;;;;;30.88;23.55;100447.84;5051822;28;20482;-64
2023/05/31 12:11:18;;;;;;;1.80;1.35;;;;;;;31.51;23.37;100456.25;5051878;28;20037;-64
2023/05/31 12:13:44;;;;;;;3.80;1.30;;;;;;;30.68;24.07;100449.03;5050796;28;20037;-64
2023/05/31 12:16:09;;;;;;;2.75;1.10;;;;;;;31.39;23.20;100444.94;5051938;28;20120;-64
2023/05/31 12:18:35;;;;;;;2.27;1.30;;;;;;;31.08;23.40;100439.22;5051642;28;20128;-64
2023/05/31 12:21:09;;;;;;;2.28;1.73;;;;;;;31.56;22.41;100441.53;5052041;28;20461;-64
2023/05/31 12:23:56;;;;;;;3.22;1.23;;;;;;;31.65;23.08;100441.63;5051919;28;20454;-64
2023/05/31 12:26:22;;;;;;;;;;;;;;;30.24;23.64;100431.06;5052212;28;20036;-65
2023/05/31 12:28:49;;;;;;;1.48;1.10;;;;;;;30.80;23.54;100435.63;5051483;28;19959;-63
2023/05/31 12:31:24;;;;;;;1.45;1.10;;;;;;;30.86;22.83;100428.91;5051663;28;20061;-64
2023/05/31 12:33:59;;;;;;;1.23;0.98;;;;;;;30.13;24.14;100424.13;5051832;28;20700;-65
2023/05/31 12:36:26;;;;;;;2.03;1.05;;;;;;;31.41;22.24;100426.19;5051714;28;20037;-64
2023/05/31 12:38:59;;;;;;;2.17;1.10;;;;;;;31.37;23.02;100429.88;5051554;28;20033;-64
2023/05/31 12:41:25;;;;;;;4.15;1.27;;;;;;;31.60;22.85;100426.03;5051673;28;20040;-63
2023/05/31 12:43:53;;;;;;;1.67;1.05;;;;;;;31.69;23.60;100423.34;5054817;28;20119;-64
2023/05/31 12:46:19;;;;;;;1.95;1.30;;;;;;;31.17;23.33;100423.63;5055565;28;20045;-64
2023/05/31 12:48:48;;;;;;;1.58;1.02;;;;;;;31.59;22.10;100425.22;5055575;28;20032;-63
2023/05/31 12:51:19;;;;;;;2.10;1.10;;;;;;;31.59;22.43;100425.22;5055519;28;20592;-64
2023/05/31 12:53:45;;;;;;;1.52;0.93;;;;;;;31.60;22.56;100423.28;5055684;28;20495;-64
2023/05/31 12:56:11;;;;;;;2.58;1.33;;;;;;;31.08;23.51;100423.50;5055431;28;20044;-64
2023/05/31 12:58:36;;;;;;;2.97;1.17;;;;;;;31.36;22.53;100415.28;5055269;28;20048;-64
2023/05/31 13:01:02;;;;;;;4.63;1.10;;;;;;;31.16;22.37;100416.47;5055534;28;20029;-64
2023/05/31 13:03:27;;;;;;;1.83;1.40;;;;;;;31.34;22.17;100417.53;5054184;28;20052;-66
2023/05/31 13:05:52;;;;;;;1.63;1.10;;;;;;;31.39;22.71;100408.34;5055325;28;20045;-65
2023/05/31 13:08:18;;;;;;;2.42;1.23;;;;;;;30.63;22.88;100419.69;5055090;28;20098;-64
2023/05/31 13:10:43;;;;;;;2.13;1.20;;;;;;;30.11;23.79;100407.13;5055107;28;20116;-64
2023/05/31 13:13:09;;;;;;;2.63;1.40;;;;;;;30.17;23.11;100412.22;5055217;28;20053;-64
2023/05/31 13:15:34;;;;;;;3.40;1.52;;;;;;;29.29;23.98;100410.19;5055083;28;20120;-65
2023/05/31 13:18:00;;;;;;;1.70;0.98;;;;;;;29.31;24.19;100408.75;5055252;28;20494;-64
2023/05/31 13:20:25;;;;;;;2.47;1.33;;;;;;;28.71;24.74;100416.56;5054691;28;20041;-65
2023/05/31 13:22:50;;;;;;;2.05;1.10;;;;;;;27.76;25.54;100403.34;5055228;28;20103;-64
2023/05/31 13:25:16;;;;;;;3.22;1.30;;;;;;;27.84;25.73;100398.09;5054887;28;20064;-64
2023/05/31 13:27:41;;;;;;;1.95;1.20;;;;;;;27.52;25.83;100395.81;5054947;28;20119;-63
2023/05/31 13:30:08;;;;;;;3.58;1.33;;;;;;;27.67;26.23;100397.63;5054528;28;20041;-64
2023/05/31 13:32:34;;;;;;;2.20;1.20;;;;;;;27.30;27.45;100385.25;5054736;28;20029;-63
2023/05/31 13:35:00;;;;;;;2.00;1.00;;;;;;;27.08;27.51;100387.53;5054756;28;20393;-63
2023/05/31 13:37:25;;;;;;;2.42;1.38;;;;;;;27.40;27.08;100381.66;5054672;28;20061;-64
2023/05/31 13:39:51;;;;;;;3.58;1.38;;;;;;;27.27;26.91;100376.78;5054514;28;20446;-64
2023/05/31 13:42:17;;;;;;;2.90;1.20;;;;;;;27.13;26.78;100378.50;5054639;28;20037;-66
2023/05/31 13:44:42;;;;;;;2.67;1.45;;;;;;;26.82;26.75;100373.09;5054717;28;20037;-63
2023/05/31 13:47:08;;;;;;;1.42;1.10;;;;;;;27.00;27.04;100374.41;5054543;28;20041;-64
2023/05/31 13:49:34;;;;;;;2.83;1.13;;;;;;;26.96;27.01;100378.81;5054270;28;20687;-64
2023/05/31 13:51:59;;;;;;;1.33;0.90;;;;;;;26.82;26.54;100375.03;5054449;28;20037;-63
2023/05/31 13:54:25;;;;;;;1.88;0.90;;;;;;;26.72;26.08;100378.59;5053769;28;20037;-65
2023/05/31 13:56:50;;;;;;;1.77;0.95;;;;;;;26.65;26.56;100376.16;5054203;28;20029;-63
2023/05/31 13:59:15;;;;;;;2.17;1.52;;;;;;;26.19;26.67;100378.91;5054104;28;20029;-64
2023/05/31 14:01:41;;;;;;;2.45;1.20;;;;;;;26.46;26.37;100364.97;5054225;28;20037;-65
2023/05/31 14:04:07;;;;;;;1.65;1.08;;;;;;;26.28;26.45;100351.88;5054347;28;20116;-63
2023/05/31 14:06:32;;;;;;;2.47;1.30;;;;;;;26.25;27.19;100361.44;5054129;28;20033;-64
2023/05/31 14:08:58;;;;;;;4.95;1.30;;;;;;;26.24;26.40;100357.06;5053829;28;20059;-65
2023/05/31 14:11:26;;;;;;;3.95;1.33;;;;;;;26.26;26.22;100348.59;5053992;28;20044;-65
2023/05/31 14:13:52;;;;;;;2.13;1.13;;;;;;;26.35;26.75;100354.34;5054203;28;20461;-65
2023/05/31 14:16:18;;;;;;;3.97;1.25;;;;;;;26.06;26.93;100346.69;5053846;28;20077;-65
2023/05/31 14:18:43;;;;;;;2.60;1.10;;;;;;;26.38;26.87;100353.78;5053691;28;20158;-65
2023/05/31 14:21:08;;;;;;;2.70;1.60;;;;;;;26.31;26.74;100355.97;5054093;28;20032;-65
2023/05/31 14:23:34;;;;;;;4.45;1.00;;;;;;;25.82;26.86;100349.16;5053868;28;20615;-65
2023/05/31 14:25:59;;;;;;;2.85;1.20;;;;;;;25.96;26.35;100342.06;5054001;28;20095;-65
2023/05/31 14:28:25;;;;;;;2.33;1.33;;;;;;;26.15;26.43;100344.25;5053587;28;20478;-65
2023/05/31 14:30:50;;;;;;;1.88;1.10;;;;;;;26.08;25.71;100339.06;5053658;28;20064;-64
2023/05/31 14:33:16;;;;;;;1.95;1.13;;;;;;;25.96;26.56;100338.53;5052408;28;20102;-65
2023/05/31 14:35:41;;;;;;;3.15;1.20;;;;;;;25.96;26.47;100346.72;5052504;28;20029;-65
2023/05/31 14:38:06;;;;;;;1.38;1.00;;;;;;;25.90;27.44;100345.06;5053588;28;20041;-65
2023/05/31 14:40:32;;;;;;;2.85;0.90;;;;;;;25.92;27.04;100348.34;5053308;28;20036;-65
2023/05/31 14:42:57;;;;;;;1.90;1.10;;;;;;;25.97;26.55;100345.63;5053525;28;20037;-64
2023/05/31 14:45:23;;;;;;;2.20;1.05;;;;;;;26.07;26.09;100350.25;5053448;28;20572;-64
2023/05/31 14:47:48;;;;;;;1.58;1.23;;;;;;;26.08;25.80;100347.25;5053407;28;20037;-64
2023/05/31 14:50:13;;;;;;;2.20;1.10;;;;;;;26.16;26.20;100343.97;5053073;28;20044;-64
2023/05/31 14:52:39;;;;;;;3.00;1.20;;;;;;;26.15;26.00;100336.06;5053069;28;20045;-64
2023/05/31 14:55:05;;;;;;;2.90;1.02;;;;;;;26.21;26.16;100340.41;5053147;28;20091;-64
2023/05/31 14:57:31;;;;;;;2.50;1.33;;;;;;;26.28;25.87;100332.78;5052954;28;20486;-63
2023/05/31 14:59:56;;;;;;;1.75;0.95;;;;;;;26.08;26.91;100336.34;5052856;28;20064;-65
2023/05/31 15:02:22;;;;;;;1.65;1.00;;;;;;;26.14;26.13;100335.22;5052971;28;20449;-64
2023/05/31 15:04:47;;;;;;;2.03;1.15;;;;;;;26.22;26.18;100334.69;5052407;28;20068;-64
2023/05/31 15:07:13;;;;;;;3.15;1.10;;;;;;;26.17;26.29;100331.97;5051377;28;20094;-64
2023/05/31 15:09:39;;;;;;;2.47;1.23;;;;;;;26.11;26.61;100319.41;5052544;28;20148;-64
2023/05/31 15:12:05;;;;;;;1.63;0.98;;;;;;;26.12;26.17;100329.22;5052809;28;20049;-65
2023/05/31 15:14:30;;;;;;;3.67;1.05;;;;;;;26.12;26.49;100331.97;5052788;28;20040;-64
2023/05/31 15:16:56;;;;;;;2.83;1.10;;;;;;;25.90;26.08;100317.78;5052742;28;20043;-65
2023/05/31 15:19:21;;;;;;;2.13;1.00;;;;;;;26.04;25.57;100329.78;5052410;28;20040;-65
2023/05/31 15:21:46;;;;;;;1.92;1.33;;;;;;;25.86;25.85;100330.31;5052473;28;20112;-64
2023/05/31 15:24:12;;;;;;;3.83;1.20;;;;;;;25.84;26.39;100325.16;5051381;28;20413;-64
2023/05/31 15:26:37;;;;;;;2.25;1.20;;;;;;;26.01;26.10;100324.84;5052538;28;20090;-65
2023/05/31 15:29:02;;;;;;;4.75;2.83;;;;;;;26.05;24.77;100330.59;5050913;28;20486;-64
2023/05/31 15:31:28;;;;;;;2.33;1.25;;;;;;;26.05;24.64;100320.50;5052532;28;20041;-64
2023/05/31 15:33:53;;;;;;;1.73;1.02;;;;;;;26.00;24.69;100320.50;5052469;28;20512;-63
2023/05/31 15:36:19;;;;;;;1.83;1.20;;;;;;;25.76;24.57;100320.25;5052381;28;20494;-63
2023/05/31 15:38:44;;;;;;;1.92;0.93;;;;;;;25.88;24.61;100311.75;5052001;28;20489;-64
2023/05/31 15:41:10;;;;;;;1.73;1.33;;;;;;;25.66;25.00;100312.81;5052390;28;20037;-64
2023/05/31 15:43:35;;;;;;;1.73;1.15;;;;;;;25.70;25.25;100321.28;5052253;28;20037;-64
2023/05/31 15:46:01;;;;;;;2.42;1.10;;;;;;;25.82;25.29;100316.44;5052224;28;20124;-64
2023/05/31 15:48:26;;;;;;;2.03;1.15;;;;;;;25.86;25.06;100314.78;5051868;28;20043;-64
2023/05/31 15:50:52;;;;;;;1.38;1.02;;;;;;;25.78;24.48;100309.06;5051108;28;20061;-64